sensor_id;sensor_type;location;lat;lon;timestamp;temperature;humidity
57088;DHT22;42965;52.846;6.614;2023-06-05T00:02:22;10.50;99.90
57088;DHT22;42965;52.846;6.614;2023-06-05T00:04:48;10.50;99.90
57088;DHT22;42965;52.846;6.614;2023-06-05T00:07:14;10.50;99.90
57088;DHT22;42965;52.846;6.614;2023-06-05T00:09:40;10.50;99.90
57088;DHT22;42965;52.846;6.614;2023-06-05T00:12:07;10.40;99.90
57088;DHT22;42965;52.846;6.614;2023-06-05T00:14:34;10.30;99.90
57088;DHT22;42965;52.846;6.614;2023-06-05T00:17:01;10.30;99.90
57088;DHT22;42965;52.846;6.614;2023-06-05T00:19:27;10.30;99.90
57088;DHT22;42965;52.846;6.614;2023-06-05T00:21:53;10.30;99.90
57088;DHT22;42965;52.846;6.614;2023-06-05T00:24:21;10.20;99.90
57088;DHT22;42965;52.846;6.614;2023-06-05T00:26:47;10.20;99.90
57088;DHT22;42965;52.846;6.614;2023-06-05T00:29:13;10.20;99.90
57088;DHT22;42965;52.846;6.614;2023-06-05T00:31:39;10.20;99.90
57088;DHT22;42965;52.846;6.614;2023-06-05T00:34:05;10.20;99.90
57088;DHT22;42965;52.846;6.614;2023-06-05T00:36:31;10.10;99.90
57088;DHT22;42965;52.846;6.614;2023-06-05T00:38:58;10.10;99.90
57088;DHT22;42965;52.846;6.614;2023-06-05T00:41:24;10.10;99.90
57088;DHT22;42965;52.846;6.614;2023-06-05T00:43:51;10.10;99.90
57088;DHT22;42965;52.846;6.614;2023-06-05T00:46:19;10.10;99.90
57088;DHT22;42965;52.846;6.614;2023-06-05T00:48:46;10.10;99.90
57088;DHT22;42965;52.846;6.614;2023-06-05T00:51:15;10.00;99.90
57088;DHT22;42965;52.846;6.614;2023-06-05T00:53:45;10.00;99.90
57088;DHT22;42965;52.846;6.614;2023-06-05T00:56:11;10.00;99.90
57088;DHT22;42965;52.846;6.614;2023-06-05T00:58:37;9.90;99.90
57088;DHT22;42965;52.846;6.614;2023-06-05T01:01:05;10.00;99.90
57088;DHT22;42965;52.846;6.614;2023-06-05T01:03:33;10.00;99.90
57088;DHT22;42965;52.846;6.614;2023-06-05T01:06:00;9.90;99.90
57088;DHT22;42965;52.846;6.614;2023-06-05T01:08:33;9.90;99.90
57088;DHT22;42965;52.846;6.614;2023-06-05T01:16:45;9.80;99.90
57088;DHT22;42965;52.846;6.614;2023-06-05T01:19:14;9.80;99.90
57088;DHT22;42965;52.846;6.614;2023-06-05T01:21:41;9.80;99.90
57088;DHT22;42965;52.846;6.614;2023-06-05T01:24:07;9.80;99.90
57088;DHT22;42965;52.846;6.614;2023-06-05T01:26:43;9.70;99.90
57088;DHT22;42965;52.846;6.614;2023-06-05T01:29:23;9.70;99.90
57088;DHT22;42965;52.846;6.614;2023-06-05T01:31:54;9.60;99.90
57088;DHT22;42965;52.846;6.614;2023-06-05T01:34:24;9.60;99.90
57088;DHT22;42965;52.846;6.614;2023-06-05T01:36:53;9.60;99.90
57088;DHT22;42965;52.846;6.614;2023-06-05T01:39:22;9.60;99.90
57088;DHT22;42965;52.846;6.614;2023-06-05T01:41:49;9.60;99.90
57088;DHT22;42965;52.846;6.614;2023-06-05T01:44:19;9.50;99.90
57088;DHT22;42965;52.846;6.614;2023-06-05T01:46:46;9.50;99.90
57088;DHT22;42965;52.846;6.614;2023-06-05T01:49:13;9.50;99.90
57088;DHT22;42965;52.846;6.614;2023-06-05T01:51:41;9.50;99.90
57088;DHT22;42965;52.846;6.614;2023-06-05T01:54:08;9.50;99.90
57088;DHT22;42965;52.846;6.614;2023-06-05T01:56:34;9.60;99.90
57088;DHT22;42965;52.846;6.614;2023-06-05T01:59:02;9.50;99.90
57088;DHT22;42965;52.846;6.614;2023-06-05T02:01:33;9.50;99.90
57088;DHT22;42965;52.846;6.614;2023-06-05T02:04:02;9.50;99.90
57088;DHT22;42965;52.846;6.614;2023-06-05T02:06:34;9.50;99.90
57088;DHT22;42965;52.846;6.614;2023-06-05T02:09:11;9.50;99.90
57088;DHT22;42965;52.846;6.614;2023-06-05T02:11:39;9.40;99.90
57088;DHT22;42965;52.846;6.614;2023-06-05T02:14:08;9.40;99.90
57088;DHT22;42965;52.846;6.614;2023-06-05T02:16:35;9.40;99.90
57088;DHT22;42965;52.846;6.614;2023-06-05T02:19:02;9.30;99.90
57088;DHT22;42965;52.846;6.614;2023-06-05T02:21:33;9.30;99.90
57088;DHT22;42965;52.846;6.614;2023-06-05T02:23:59;9.30;99.90
57088;DHT22;42965;52.846;6.614;2023-06-05T02:26:26;9.30;99.90
57088;DHT22;42965;52.846;6.614;2023-06-05T02:28:56;9.30;99.90
57088;DHT22;42965;52.846;6.614;2023-06-05T02:31:24;9.30;99.90
57088;DHT22;42965;52.846;6.614;2023-06-05T02:33:53;9.30;99.90
57088;DHT22;42965;52.846;6.614;2023-06-05T02:36:22;9.30;99.90
57088;DHT22;42965;52.846;6.614;2023-06-05T02:38:49;9.30;99.90
57088;DHT22;42965;52.846;6.614;2023-06-05T02:41:19;9.30;99.90
57088;DHT22;42965;52.846;6.614;2023-06-05T02:43:47;9.30;99.90
57088;DHT22;42965;52.846;6.614;2023-06-05T02:46:14;9.20;99.90
57088;DHT22;42965;52.846;6.614;2023-06-05T02:48:41;9.20;99.90
57088;DHT22;42965;52.846;6.614;2023-06-05T02:51:07;9.10;99.90
57088;DHT22;42965;52.846;6.614;2023-06-05T02:53:35;9.10;99.90
57088;DHT22;42965;52.846;6.614;2023-06-05T02:56:03;9.10;99.90
57088;DHT22;42965;52.846;6.614;2023-06-05T02:58:32;9.10;99.90
57088;DHT22;42965;52.846;6.614;2023-06-05T03:01:00;9.10;99.90
57088;DHT22;42965;52.846;6.614;2023-06-05T03:03:31;9.10;99.90
57088;DHT22;42965;52.846;6.614;2023-06-05T03:06:01;9.10;99.90
57088;DHT22;42965;52.846;6.614;2023-06-05T03:08:35;9.00;99.90
57088;DHT22;42965;52.846;6.614;2023-06-05T03:11:03;9.00;99.90
57088;DHT22;42965;52.846;6.614;2023-06-05T03:13:31;9.00;99.90
57088;DHT22;42965;52.846;6.614;2023-06-05T03:15:59;9.00;99.90
57088;DHT22;42965;52.846;6.614;2023-06-05T03:18:28;9.00;99.90
57088;DHT22;42965;52.846;6.614;2023-06-05T03:20:57;9.00;99.90
57088;DHT22;42965;52.846;6.614;2023-06-05T03:23:26;9.10;99.90
57088;DHT22;42965;52.846;6.614;2023-06-05T03:25:54;9.00;99.90
57088;DHT22;42965;52.846;6.614;2023-06-05T03:28:23;9.00;99.90
57088;DHT22;42965;52.846;6.614;2023-06-05T03:30:50;9.00;99.90
57088;DHT22;42965;52.846;6.614;2023-06-05T03:33:19;9.10;99.90
57088;DHT22;42965;52.846;6.614;2023-06-05T03:35:46;9.00;99.90
57088;DHT22;42965;52.846;6.614;2023-06-05T03:38:13;9.00;99.90
57088;DHT22;42965;52.846;6.614;2023-06-05T03:40:39;9.10;99.90
57088;DHT22;42965;52.846;6.614;2023-06-05T03:43:08;9.00;99.90
57088;DHT22;42965;52.846;6.614;2023-06-05T03:45:37;9.10;99.90
57088;DHT22;42965;52.846;6.614;2023-06-05T03:48:06;9.00;99.90
57088;DHT22;42965;52.846;6.614;2023-06-05T03:50:36;9.20;99.90
57088;DHT22;42965;52.846;6.614;2023-06-05T03:53:07;9.10;99.90
57088;DHT22;42965;52.846;6.614;2023-06-05T03:55:35;9.10;99.90
57088;DHT22;42965;52.846;6.614;2023-06-05T03:58:12;9.20;99.90
57088;DHT22;42965;52.846;6.614;2023-06-05T04:00:41;9.20;99.90
57088;DHT22;42965;52.846;6.614;2023-06-05T04:03:12;9.20;99.90
57088;DHT22;42965;52.846;6.614;2023-06-05T04:05:39;9.30;99.90
57088;DHT22;42965;52.846;6.614;2023-06-05T04:08:07;9.30;99.90
57088;DHT22;42965;52.846;6.614;2023-06-05T04:10:35;9.30;99.90
57088;DHT22;42965;52.846;6.614;2023-06-05T04:13:01;9.30;99.90
57088;DHT22;42965;52.846;6.614;2023-06-05T04:15:30;9.40;99.90
57088;DHT22;42965;52.846;6.614;2023-06-05T04:17:57;9.40;99.90
57088;DHT22;42965;52.846;6.614;2023-06-05T04:20:23;9.40;99.90
57088;DHT22;42965;52.846;6.614;2023-06-05T04:22:49;9.50;99.90
57088;DHT22;42965;52.846;6.614;2023-06-05T04:25:17;9.50;99.90
57088;DHT22;42965;52.846;6.614;2023-06-05T04:27:50;9.60;99.90
57088;DHT22;42965;52.846;6.614;2023-06-05T04:30:17;9.70;99.90
57088;DHT22;42965;52.846;6.614;2023-06-05T04:32:44;9.70;99.90
57088;DHT22;42965;52.846;6.614;2023-06-05T04:35:20;9.70;99.90
57088;DHT22;42965;52.846;6.614;2023-06-05T04:37:49;9.80;99.90
57088;DHT22;42965;52.846;6.614;2023-06-05T04:40:19;9.90;99.90
57088;DHT22;42965;52.846;6.614;2023-06-05T04:42:47;9.90;99.90
57088;DHT22;42965;52.846;6.614;2023-06-05T04:45:15;10.00;99.90
57088;DHT22;42965;52.846;6.614;2023-06-05T04:47:45;10.10;99.90
57088;DHT22;42965;52.846;6.614;2023-06-05T04:50:26;10.10;99.90
57088;DHT22;42965;52.846;6.614;2023-06-05T04:53:03;10.20;99.90
57088;DHT22;42965;52.846;6.614;2023-06-05T04:55:30;10.30;99.90
57088;DHT22;42965;52.846;6.614;2023-06-05T04:57:56;10.40;99.90
57088;DHT22;42965;52.846;6.614;2023-06-05T05:00:28;10.50;99.90
57088;DHT22;42965;52.846;6.614;2023-06-05T05:02:55;10.60;99.90
57088;DHT22;42965;52.846;6.614;2023-06-05T05:05:22;10.70;99.90
57088;DHT22;42965;52.846;6.614;2023-06-05T05:07:51;11.10;99.90
57088;DHT22;42965;52.846;6.614;2023-06-05T05:10:24;11.40;99.90
57088;DHT22;42965;52.846;6.614;2023-06-05T05:12:53;11.70;99.90
57088;DHT22;42965;52.846;6.614;2023-06-05T05:15:21;12.00;99.90
57088;DHT22;42965;52.846;6.614;2023-06-05T05:17:47;12.30;99.90
57088;DHT22;42965;52.846;6.614;2023-06-05T05:20:15;12.40;99.90
57088;DHT22;42965;52.846;6.614;2023-06-05T05:22:46;12.60;99.90
57088;DHT22;42965;52.846;6.614;2023-06-05T05:25:12;12.80;99.90
57088;DHT22;42965;52.846;6.614;2023-06-05T05:27:39;12.80;99.90
57088;DHT22;42965;52.846;6.614;2023-06-05T05:30:07;13.10;99.90
57088;DHT22;42965;52.846;6.614;2023-06-05T05:32:35;13.30;99.90
57088;DHT22;42965;52.846;6.614;2023-06-05T05:35:02;13.40;99.90
57088;DHT22;42965;52.846;6.614;2023-06-05T05:37:28;13.50;99.90
57088;DHT22;42965;52.846;6.614;2023-06-05T05:39:54;13.70;99.90
57088;DHT22;42965;52.846;6.614;2023-06-05T05:42:21;13.80;99.90
57088;DHT22;42965;52.846;6.614;2023-06-05T05:44:47;14.00;99.90
57088;DHT22;42965;52.846;6.614;2023-06-05T05:47:13;14.10;99.90
57088;DHT22;42965;52.846;6.614;2023-06-05T05:49:39;14.30;99.90
57088;DHT22;42965;52.846;6.614;2023-06-05T05:52:06;14.40;99.90
57088;DHT22;42965;52.846;6.614;2023-06-05T05:54:32;14.30;99.90
57088;DHT22;42965;52.846;6.614;2023-06-05T05:56:58;14.40;99.90
57088;DHT22;42965;52.846;6.614;2023-06-05T05:59:24;14.50;99.90
57088;DHT22;42965;52.846;6.614;2023-06-05T06:01:54;14.50;99.90
57088;DHT22;42965;52.846;6.614;2023-06-05T06:04:20;14.60;99.90
57088;DHT22;42965;52.846;6.614;2023-06-05T06:06:47;14.80;99.90
57088;DHT22;42965;52.846;6.614;2023-06-05T06:09:18;14.90;99.90
57088;DHT22;42965;52.846;6.614;2023-06-05T06:11:46;14.80;99.90
57088;DHT22;42965;52.846;6.614;2023-06-05T06:14:12;15.10;99.90
57088;DHT22;42965;52.846;6.614;2023-06-05T06:16:39;15.20;99.90
57088;DHT22;42965;52.846;6.614;2023-06-05T06:19:06;15.20;99.90
57088;DHT22;42965;52.846;6.614;2023-06-05T06:21:32;15.40;99.90
57088;DHT22;42965;52.846;6.614;2023-06-05T06:24:01;15.50;99.90
57088;DHT22;42965;52.846;6.614;2023-06-05T06:26:28;15.70;99.90
57088;DHT22;42965;52.846;6.614;2023-06-05T06:28:55;15.50;99.90
57088;DHT22;42965;52.846;6.614;2023-06-05T06:31:23;15.80;99.90
57088;DHT22;42965;52.846;6.614;2023-06-05T06:33:49;15.80;99.90
57088;DHT22;42965;52.846;6.614;2023-06-05T06:36:19;15.90;99.90
57088;DHT22;42965;52.846;6.614;2023-06-05T06:38:46;16.10;99.90
57088;DHT22;42965;52.846;6.614;2023-06-05T06:41:12;16.20;99.90
57088;DHT22;42965;52.846;6.614;2023-06-05T06:43:38;16.20;99.90
57088;DHT22;42965;52.846;6.614;2023-06-05T06:46:05;16.30;99.90
57088;DHT22;42965;52.846;6.614;2023-06-05T06:48:32;16.40;99.90
57088;DHT22;42965;52.846;6.614;2023-06-05T06:50:59;16.30;99.90
57088;DHT22;42965;52.846;6.614;2023-06-05T06:53:26;16.40;99.90
57088;DHT22;42965;52.846;6.614;2023-06-05T06:55:52;16.50;99.90
57088;DHT22;42965;52.846;6.614;2023-06-05T06:58:18;16.70;99.90
57088;DHT22;42965;52.846;6.614;2023-06-05T07:00:44;16.80;99.90
57088;DHT22;42965;52.846;6.614;2023-06-05T07:03:11;16.80;99.90
57088;DHT22;42965;52.846;6.614;2023-06-05T07:05:37;17.20;99.90
57088;DHT22;42965;52.846;6.614;2023-06-05T07:08:04;17.40;99.90
57088;DHT22;42965;52.846;6.614;2023-06-05T07:10:31;17.50;99.90
57088;DHT22;42965;52.846;6.614;2023-06-05T07:12:58;17.30;99.90
57088;DHT22;42965;52.846;6.614;2023-06-05T07:15:24;17.40;99.90
57088;DHT22;42965;52.846;6.614;2023-06-05T07:17:51;17.60;99.90
57088;DHT22;42965;52.846;6.614;2023-06-05T07:20:17;17.70;99.90
57088;DHT22;42965;52.846;6.614;2023-06-05T07:22:44;17.80;99.90
57088;DHT22;42965;52.846;6.614;2023-06-05T07:25:12;17.80;99.90
57088;DHT22;42965;52.846;6.614;2023-06-05T07:27:39;18.00;99.90
57088;DHT22;42965;52.846;6.614;2023-06-05T07:30:07;18.10;99.90
57088;DHT22;42965;52.846;6.614;2023-06-05T07:32:34;18.30;99.90
57088;DHT22;42965;52.846;6.614;2023-06-05T07:35:00;18.50;99.90
57088;DHT22;42965;52.846;6.614;2023-06-05T07:37:27;18.60;99.90
57088;DHT22;42965;52.846;6.614;2023-06-05T07:39:53;18.70;99.90
57088;DHT22;42965;52.846;6.614;2023-06-05T07:42:20;19.10;99.90
57088;DHT22;42965;52.846;6.614;2023-06-05T07:44:46;18.90;99.90
57088;DHT22;42965;52.846;6.614;2023-06-05T07:47:14;19.30;99.90
57088;DHT22;42965;52.846;6.614;2023-06-05T07:49:41;19.80;99.90
57088;DHT22;42965;52.846;6.614;2023-06-05T07:52:07;19.70;99.90
57088;DHT22;42965;52.846;6.614;2023-06-05T07:54:33;19.90;99.90
57088;DHT22;42965;52.846;6.614;2023-06-05T07:56:59;19.90;99.90
57088;DHT22;42965;52.846;6.614;2023-06-05T07:59:26;19.70;99.90
57088;DHT22;42965;52.846;6.614;2023-06-05T08:01:54;19.80;99.90
57088;DHT22;42965;52.846;6.614;2023-06-05T08:04:22;20.00;99.90
57088;DHT22;42965;52.846;6.614;2023-06-05T08:06:51;20.00;99.90
57088;DHT22;42965;52.846;6.614;2023-06-05T08:09:18;20.10;99.90
57088;DHT22;42965;52.846;6.614;2023-06-05T08:11:44;20.10;99.90
57088;DHT22;42965;52.846;6.614;2023-06-05T08:14:11;20.20;99.10
57088;DHT22;42965;52.846;6.614;2023-06-05T08:16:37;20.40;99.10
57088;DHT22;42965;52.846;6.614;2023-06-05T08:19:04;20.50;98.60
57088;DHT22;42965;52.846;6.614;2023-06-05T08:21:30;20.80;98.90
57088;DHT22;42965;52.846;6.614;2023-06-05T08:23:57;21.00;97.50
57088;DHT22;42965;52.846;6.614;2023-06-05T08:26:23;20.90;97.10
57088;DHT22;42965;52.846;6.614;2023-06-05T08:28:49;20.80;95.60
57088;DHT22;42965;52.846;6.614;2023-06-05T08:31:16;20.80;94.50
57088;DHT22;42965;52.846;6.614;2023-06-05T08:33:43;21.10;93.90
57088;DHT22;42965;52.846;6.614;2023-06-05T08:36:09;21.40;93.00
57088;DHT22;42965;52.846;6.614;2023-06-05T08:38:36;21.10;91.90
57088;DHT22;42965;52.846;6.614;2023-06-05T08:41:04;21.60;91.70
57088;DHT22;42965;52.846;6.614;2023-06-05T08:43:37;21.70;91.00
57088;DHT22;42965;52.846;6.614;2023-06-05T08:46:05;22.20;85.80
57088;DHT22;42965;52.846;6.614;2023-06-05T08:48:33;22.10;85.70
57088;DHT22;42965;52.846;6.614;2023-06-05T08:51:02;22.10;86.00
57088;DHT22;42965;52.846;6.614;2023-06-05T08:53:32;22.00;84.80
57088;DHT22;42965;52.846;6.614;2023-06-05T08:56:01;22.40;80.40
57088;DHT22;42965;52.846;6.614;2023-06-05T08:58:28;22.10;78.40
57088;DHT22;42965;52.846;6.614;2023-06-05T09:00:54;22.40;78.00
57088;DHT22;42965;52.846;6.614;2023-06-05T09:03:20;22.20;76.80
57088;DHT22;42965;52.846;6.614;2023-06-05T09:05:47;22.30;76.50
57088;DHT22;42965;52.846;6.614;2023-06-05T09:08:17;22.10;75.50
57088;DHT22;42965;52.846;6.614;2023-06-05T09:10:45;22.50;75.50
57088;DHT22;42965;52.846;6.614;2023-06-05T09:13:11;22.40;74.50
57088;DHT22;42965;52.846;6.614;2023-06-05T09:15:38;23.00;74.20
57088;DHT22;42965;52.846;6.614;2023-06-05T09:18:13;23.10;73.50
57088;DHT22;42965;52.846;6.614;2023-06-05T09:20:43;23.40;71.90
57088;DHT22;42965;52.846;6.614;2023-06-05T09:23:26;23.60;69.50
57088;DHT22;42965;52.846;6.614;2023-06-05T09:25:58;23.80;65.70
57088;DHT22;42965;52.846;6.614;2023-06-05T09:28:26;24.00;62.00
57088;DHT22;42965;52.846;6.614;2023-06-05T09:31:04;23.80;61.90
57088;DHT22;42965;52.846;6.614;2023-06-05T09:33:33;24.00;61.60
57088;DHT22;42965;52.846;6.614;2023-06-05T09:36:09;23.80;61.60
57088;DHT22;42965;52.846;6.614;2023-06-05T09:38:38;24.00;61.20
57088;DHT22;42965;52.846;6.614;2023-06-05T09:41:09;23.80;61.70
57088;DHT22;42965;52.846;6.614;2023-06-05T09:43:37;24.30;62.60
57088;DHT22;42965;52.846;6.614;2023-06-05T09:46:11;24.20;61.30
57088;DHT22;42965;52.846;6.614;2023-06-05T09:48:38;23.90;61.30
57088;DHT22;42965;52.846;6.614;2023-06-05T09:53:40;25.20;62.30
57088;DHT22;42965;52.846;6.614;2023-06-05T09:56:09;25.00;59.80
57088;DHT22;42965;52.846;6.614;2023-06-05T09:58:37;25.20;59.80
57088;DHT22;42965;52.846;6.614;2023-06-05T10:01:06;24.90;58.30
57088;DHT22;42965;52.846;6.614;2023-06-05T10:03:36;24.60;58.60
57088;DHT22;42965;52.846;6.614;2023-06-05T10:06:04;25.60;58.40
57088;DHT22;42965;52.846;6.614;2023-06-05T10:08:31;25.50;57.90
57088;DHT22;42965;52.846;6.614;2023-06-05T10:10:58;25.60;57.60
57088;DHT22;42965;52.846;6.614;2023-06-05T10:13:27;25.80;56.00
57088;DHT22;42965;52.846;6.614;2023-06-05T10:15:55;25.80;56.50
57088;DHT22;42965;52.846;6.614;2023-06-05T10:18:25;25.60;55.50
57088;DHT22;42965;52.846;6.614;2023-06-05T10:20:52;25.90;55.50
57088;DHT22;42965;52.846;6.614;2023-06-05T10:23:20;25.90;55.30
57088;DHT22;42965;52.846;6.614;2023-06-05T10:25:48;25.90;56.20
57088;DHT22;42965;52.846;6.614;2023-06-05T10:28:51;26.10;56.10
57088;DHT22;42965;52.846;6.614;2023-06-05T10:34:23;26.40;53.70
57088;DHT22;42965;52.846;6.614;2023-06-05T10:39:49;26.70;54.20
57088;DHT22;42965;52.846;6.614;2023-06-05T10:42:26;26.60;52.50
57088;DHT22;42965;52.846;6.614;2023-06-05T10:44:52;26.70;53.30
57088;DHT22;42965;52.846;6.614;2023-06-05T10:52:45;26.20;51.60
57088;DHT22;42965;52.846;6.614;2023-06-05T10:55:12;26.10;52.50
57088;DHT22;42965;52.846;6.614;2023-06-05T11:00:30;26.60;52.40
57088;DHT22;42965;52.846;6.614;2023-06-05T11:02:56;26.50;52.20
57088;DHT22;42965;52.846;6.614;2023-06-05T11:05:23;26.30;52.40
57088;DHT22;42965;52.846;6.614;2023-06-05T11:08:16;26.80;53.20
57088;DHT22;42965;52.846;6.614;2023-06-05T11:11:06;27.00;52.00
57088;DHT22;42965;52.846;6.614;2023-06-05T11:13:56;26.70;51.60
57088;DHT22;42965;52.846;6.614;2023-06-05T11:16:29;26.90;52.30
57088;DHT22;42965;52.846;6.614;2023-06-05T11:22:03;27.30;51.30
57088;DHT22;42965;52.846;6.614;2023-06-05T11:24:30;27.10;50.70
57088;DHT22;42965;52.846;6.614;2023-06-05T11:26:57;26.90;50.50
57088;DHT22;42965;52.846;6.614;2023-06-05T11:29:24;27.20;50.70
57088;DHT22;42965;52.846;6.614;2023-06-05T11:31:52;27.20;50.80
57088;DHT22;42965;52.846;6.614;2023-06-05T11:34:18;27.30;50.60
57088;DHT22;42965;52.846;6.614;2023-06-05T11:36:45;27.10;50.90
57088;DHT22;42965;52.846;6.614;2023-06-05T11:39:11;27.00;50.60
57088;DHT22;42965;52.846;6.614;2023-06-05T11:41:46;27.50;50.30
57088;DHT22;42965;52.846;6.614;2023-06-05T11:44:14;27.70;51.40
57088;DHT22;42965;52.846;6.614;2023-06-05T11:46:42;27.90;50.60
57088;DHT22;42965;52.846;6.614;2023-06-05T11:49:23;28.20;50.00
57088;DHT22;42965;52.846;6.614;2023-06-05T11:51:51;27.90;47.90
57088;DHT22;42965;52.846;6.614;2023-06-05T11:54:33;27.50;49.50
57088;DHT22;42965;52.846;6.614;2023-06-05T11:57:06;27.80;48.70
57088;DHT22;42965;52.846;6.614;2023-06-05T11:59:38;27.40;48.70
57088;DHT22;42965;52.846;6.614;2023-06-05T12:02:05;27.70;49.10
57088;DHT22;42965;52.846;6.614;2023-06-05T12:04:31;27.50;48.40
57088;DHT22;42965;52.846;6.614;2023-06-05T12:06:58;27.60;49.10
57088;DHT22;42965;52.846;6.614;2023-06-05T12:09:28;27.60;48.90
57088;DHT22;42965;52.846;6.614;2023-06-05T12:12:05;27.90;48.70
57088;DHT22;42965;52.846;6.614;2023-06-05T12:14:33;27.90;49.30
57088;DHT22;42965;52.846;6.614;2023-06-05T12:17:08;27.30;48.40
57088;DHT22;42965;52.846;6.614;2023-06-05T12:19:35;27.50;48.50
57088;DHT22;42965;52.846;6.614;2023-06-05T12:22:05;27.60;48.90
57088;DHT22;42965;52.846;6.614;2023-06-05T12:24:31;27.60;48.40
57088;DHT22;42965;52.846;6.614;2023-06-05T12:27:02;28.00;48.80
57088;DHT22;42965;52.846;6.614;2023-06-05T12:29:33;28.10;48.90
57088;DHT22;42965;52.846;6.614;2023-06-05T12:32:01;28.10;48.90
57088;DHT22;42965;52.846;6.614;2023-06-05T12:34:47;28.30;47.90
57088;DHT22;42965;52.846;6.614;2023-06-05T12:37:44;28.50;47.70
57088;DHT22;42965;52.846;6.614;2023-06-05T12:40:12;28.20;47.40
57088;DHT22;42965;52.846;6.614;2023-06-05T12:42:41;28.20;48.20
57088;DHT22;42965;52.846;6.614;2023-06-05T12:45:10;28.40;48.30
57088;DHT22;42965;52.846;6.614;2023-06-05T12:47:37;28.50;48.50
57088;DHT22;42965;52.846;6.614;2023-06-05T12:50:04;28.50;48.00
57088;DHT22;42965;52.846;6.614;2023-06-05T12:52:37;28.90;47.70
57088;DHT22;42965;52.846;6.614;2023-06-05T12:55:04;29.10;47.50
57088;DHT22;42965;52.846;6.614;2023-06-05T12:57:32;29.30;47.20
57088;DHT22;42965;52.846;6.614;2023-06-05T12:59:58;29.40;46.80
57088;DHT22;42965;52.846;6.614;2023-06-05T13:02:26;29.40;46.60
57088;DHT22;42965;52.846;6.614;2023-06-05T13:04:54;29.30;45.80
57088;DHT22;42965;52.846;6.614;2023-06-05T13:07:21;29.50;46.50
57088;DHT22;42965;52.846;6.614;2023-06-05T13:09:47;29.20;46.00
57088;DHT22;42965;52.846;6.614;2023-06-05T13:12:14;29.50;46.10
57088;DHT22;42965;52.846;6.614;2023-06-05T13:14:40;29.40;45.50
57088;DHT22;42965;52.846;6.614;2023-06-05T13:17:07;29.50;45.90
57088;DHT22;42965;52.846;6.614;2023-06-05T13:19:33;29.20;45.90
57088;DHT22;42965;52.846;6.614;2023-06-05T13:21:59;29.40;46.00
57088;DHT22;42965;52.846;6.614;2023-06-05T13:24:26;29.30;46.40
57088;DHT22;42965;52.846;6.614;2023-06-05T13:26:52;29.40;45.60
57088;DHT22;42965;52.846;6.614;2023-06-05T13:29:18;29.60;46.10
57088;DHT22;42965;52.846;6.614;2023-06-05T13:31:45;29.60;46.00
57088;DHT22;42965;52.846;6.614;2023-06-05T13:34:11;29.50;46.10
57088;DHT22;42965;52.846;6.614;2023-06-05T13:36:38;29.70;46.00
57088;DHT22;42965;52.846;6.614;2023-06-05T13:39:04;29.80;46.10
57088;DHT22;42965;52.846;6.614;2023-06-05T13:41:34;29.70;46.00
57088;DHT22;42965;52.846;6.614;2023-06-05T13:44:00;30.00;45.60
57088;DHT22;42965;52.846;6.614;2023-06-05T13:46:27;30.10;45.40
57088;DHT22;42965;52.846;6.614;2023-06-05T13:48:53;30.10;45.40
57088;DHT22;42965;52.846;6.614;2023-06-05T13:51:20;29.30;45.30
57088;DHT22;42965;52.846;6.614;2023-06-05T13:53:47;29.10;45.80
57088;DHT22;42965;52.846;6.614;2023-06-05T13:56:14;29.30;46.10
57088;DHT22;42965;52.846;6.614;2023-06-05T13:58:40;29.50;45.70
57088;DHT22;42965;52.846;6.614;2023-06-05T14:01:06;29.40;46.20
57088;DHT22;42965;52.846;6.614;2023-06-05T14:03:33;29.30;45.90
57088;DHT22;42965;52.846;6.614;2023-06-05T14:06:00;29.50;46.30
57088;DHT22;42965;52.846;6.614;2023-06-05T14:08:26;29.50;46.40
57088;DHT22;42965;52.846;6.614;2023-06-05T14:10:53;29.60;46.20
57088;DHT22;42965;52.846;6.614;2023-06-05T14:13:19;29.30;46.10
57088;DHT22;42965;52.846;6.614;2023-06-05T14:15:48;29.20;46.00
57088;DHT22;42965;52.846;6.614;2023-06-05T14:18:16;29.20;45.90
57088;DHT22;42965;52.846;6.614;2023-06-05T14:20:42;29.40;46.40
57088;DHT22;42965;52.846;6.614;2023-06-05T14:23:08;29.40;46.60
57088;DHT22;42965;52.846;6.614;2023-06-05T14:25:36;29.30;45.90
57088;DHT22;42965;52.846;6.614;2023-06-05T14:28:03;29.20;46.10
57088;DHT22;42965;52.846;6.614;2023-06-05T14:30:29;29.10;46.60
57088;DHT22;42965;52.846;6.614;2023-06-05T14:32:57;29.00;46.60
57088;DHT22;42965;52.846;6.614;2023-06-05T14:35:23;29.20;46.60
57088;DHT22;42965;52.846;6.614;2023-06-05T14:37:50;28.70;46.30
57088;DHT22;42965;52.846;6.614;2023-06-05T14:40:18;28.50;47.00
57088;DHT22;42965;52.846;6.614;2023-06-05T14:42:45;28.90;47.30
57088;DHT22;42965;52.846;6.614;2023-06-05T14:45:11;28.30;47.30
57088;DHT22;42965;52.846;6.614;2023-06-05T14:47:40;28.10;47.70
57088;DHT22;42965;52.846;6.614;2023-06-05T14:50:07;27.50;47.80
57088;DHT22;42965;52.846;6.614;2023-06-05T14:52:33;27.30;49.00
57088;DHT22;42965;52.846;6.614;2023-06-05T14:55:01;26.90;49.80
57088;DHT22;42965;52.846;6.614;2023-06-05T14:57:27;26.30;50.60
57088;DHT22;42965;52.846;6.614;2023-06-05T14:59:54;26.00;51.20
57088;DHT22;42965;52.846;6.614;2023-06-05T15:02:21;25.70;51.60
57088;DHT22;42965;52.846;6.614;2023-06-05T15:04:48;25.10;52.30
57088;DHT22;42965;52.846;6.614;2023-06-05T15:07:19;24.90;52.60
57088;DHT22;42965;52.846;6.614;2023-06-05T15:09:48;24.80;53.30
57088;DHT22;42965;52.846;6.614;2023-06-05T15:12:15;24.10;53.80
57088;DHT22;42965;52.846;6.614;2023-06-05T15:14:41;23.90;54.70
57088;DHT22;42965;52.846;6.614;2023-06-05T15:17:07;24.00;54.90
57088;DHT22;42965;52.846;6.614;2023-06-05T15:19:35;24.00;55.10
57088;DHT22;42965;52.846;6.614;2023-06-05T15:22:01;24.00;55.20
57088;DHT22;42965;52.846;6.614;2023-06-05T15:24:28;23.80;54.90
57088;DHT22;42965;52.846;6.614;2023-06-05T15:26:54;23.80;55.50
57088;DHT22;42965;52.846;6.614;2023-06-05T15:29:21;23.80;56.00
57088;DHT22;42965;52.846;6.614;2023-06-05T15:31:47;23.70;56.10
57088;DHT22;42965;52.846;6.614;2023-06-05T15:34:13;23.80;56.60
57088;DHT22;42965;52.846;6.614;2023-06-05T15:36:39;23.60;56.80
57088;DHT22;42965;52.846;6.614;2023-06-05T15:39:06;23.70;56.90
57088;DHT22;42965;52.846;6.614;2023-06-05T15:41:32;23.60;56.50
57088;DHT22;42965;52.846;6.614;2023-06-05T15:43:59;23.50;56.50
57088;DHT22;42965;52.846;6.614;2023-06-05T15:46:25;23.40;56.90
57088;DHT22;42965;52.846;6.614;2023-06-05T15:48:51;23.20;57.10
57088;DHT22;42965;52.846;6.614;2023-06-05T15:51:18;23.30;57.80
57088;DHT22;42965;52.846;6.614;2023-06-05T15:53:44;23.10;57.90
57088;DHT22;42965;52.846;6.614;2023-06-05T15:56:10;23.00;58.30
57088;DHT22;42965;52.846;6.614;2023-06-05T15:58:36;22.80;58.50
57088;DHT22;42965;52.846;6.614;2023-06-05T16:01:03;22.70;59.00
57088;DHT22;42965;52.846;6.614;2023-06-05T16:03:29;22.60;59.20
57088;DHT22;42965;52.846;6.614;2023-06-05T16:05:55;22.40;59.70
57088;DHT22;42965;52.846;6.614;2023-06-05T16:08:21;22.40;60.40